Data for 03/12/2008

Time Sea-Level Adjusted Pressure Absolute Pressure Temperature Relative Humidity Dew Point   
(mb) (inHg) (mb) (inHg) (C) (F) (%) (C) (F)
00:05 1017 30.03 847 25.01 2.7 36.8 55 -5.4 22.3
00:10 1017 30.03 847 25.01 2.7 36.8 55 -5.5 22.1
00:15 1017 30.03 847 25.01 2.9 37.2 55 -5.3 22.5
00:20 1017 30.03 846 24.98 2.9 37.3 53 -5.7 21.8
00:25 1017 30.03 846 24.98 3 37.3 51 -6.3 20.7
00:30 1017 30.03 846 24.98 3.1 37.5 50 -6.5 20.4
00:35 1017 30.03 846 24.98 3 37.4 50 -6.5 20.4
00:40 1017 30.03 846 24.98 3 37.3 48 -6.9 19.6
00:45 1017 30.03 846 24.98 2.9 37.2 48 -7 19.4
00:50 1017 30.03 846 24.98 2.7 36.8 52 -6.2 20.8
00:55 1017 30.03 846 24.98 2.4 36.3 53 -6.2 20.8
01:00 1017 30.03 846 24.98 2.2 35.9 55 -6 21.2
01:05 1017 30.03 846 24.98 2 35.6 56 -5.9 21.3
01:10 1017 30.03 846 24.98 2.2 35.9 55 -6 21.1
01:15 1017 30.03 846 24.98 2.3 36.2 53 -6.2 20.8
01:20 1017 30.03 846 24.98 2.4 36.3 53 -6.2 20.9
01:25 1017 30.03 847 25.01 2.2 35.9 54 -6.2 20.8
01:30 1017 30.03 847 25.01 1.9 35.4 54 -6.5 20.4
01:35 1017 30.03 846 24.98 2 35.6 51 -7 19.5
01:40 1017 30.03 846 24.98 2.1 35.8 51 -7.1 19.3
01:45 1017 30.03 846 24.98 2.1 35.7 48 -7.9 17.8
01:50 1017 30.03 846 24.98 2.1 35.7 45 -8.6 16.5
01:55 1017 30.03 846 24.98 2.2 35.9 43 -9.2 15.4
02:00 1017 30.03 846 24.98 2.2 36 40 -10 14
02:05 1017 30.03 846 24.98 2.3 36.1 38 -10.5 13.1
02:10 1017 30.03 846 24.98 2.4 36.2 35 -11.6 11.2
02:15 1017 30.03 846 24.98 2.4 36.4 35 -11.7 11
02:20 1017 30.03 846 24.98 2.4 36.4 35 -11.7 11
02:25 1017 30.03 846 24.98 2.4 36.3 35 -11.6 11.1
02:30 1017 30.03 846 24.98 2.3 36.2 35 -11.7 10.9
02:35 1017 30.03 846 24.98 2.3 36.1 35 -11.6 11.1
02:40 1017 30.03 846 24.98 2.2 35.9 37 -11.1 12
02:45 1017 30.03 846 24.98 2.1 35.7 38 -10.8 12.6
02:50 1017 30.03 846 24.98 2 35.6 39 -10.6 12.9
02:55 1017 30.03 846 24.98 1.9 35.3 40 -10.4 13.3
03:00 1017 30.03 846 24.98 1.8 35.2 39 -10.7 12.8
03:05 1017 30.03 846 24.98 1.7 35.1 40 -10.5 13.2
03:10 1017 30.03 846 24.98 1.6 34.9 40 -10.6 12.9
03:15 1017 30.03 846 24.98 1.6 34.8 41 -10.4 13.3
03:20 1017 30.03 846 24.98 1.5 34.7 39 -11 12.2
03:25 1017 30.03 846 24.98 1.5 34.7 39 -10.9 12.4
03:30 1017 30.03 846 24.98 1.4 34.6 40 -10.9 12.4
03:35 1017 30.03 846 24.98 1.3 34.4 40 -10.9 12.4
03:40 1017 30.03 846 24.98 1.2 34.2 40 -11.1 12
03:45 1017 30.03 846 24.98 1.2 34.2 39 -11.3 11.7
03:50 1017 30.03 846 24.98 1.2 34.2 40 -11 12.1
03:55 1017 30.03 846 24.98 1.1 33.9 41 -10.9 12.4
04:00 1017 30.03 846 24.98 0.9 33.7 42 -10.7 12.8
04:05 1017 30.03 846 24.98 0.8 33.4 42 -10.6 12.9
04:10 1017 30.03 846 24.98 0.7 33.3 42 -10.7 12.7
04:15 1017 30.03 846 24.98 0.7 33.2 44 -10.3 13.4
04:20 1017 30.03 846 24.98 0.6 33 43 -10.6 13
04:25 1017 30.03 846 24.98 0.6 33.1 42 -11 12.2
04:30 1017 30.03 846 24.98 0.7 33.2 41 -11.1 12.1
04:35 1017 30.03 846 24.98 0.7 33.2 41 -11.2 11.9
04:40 1017 30.03 846 24.98 0.6 33.2 41 -11.2 11.8
04:45 1017 30.03 846 24.98 0.6 33.1 41 -11.3 11.7
04:50 1017 30.03 846 24.98 0.6 33 40 -11.4 11.5
04:55 1017 30.03 846 24.98 0.5 33 41 -11.3 11.6
05:00 1017 30.03 846 24.98 0.5 32.9 42 -11.2 11.9
05:05 1017 30.03 846 24.98 0.4 32.7 41 -11.3 11.7
05:10 1017 30.03 846 24.98 0.4 32.8 41 -11.3 11.6
05:15 1017 30.03 846 24.98 0.4 32.7 42 -11.2 11.8
05:20 1017 30.03 846 24.98 0.4 32.6 42 -11.3 11.7
05:25 1017 30.03 846 24.98 0.4 32.8 42 -11.2 11.9
05:30 1017 30.03 846 24.98 0.4 32.7 42 -11 12.1
05:35 1017 30.03 846 24.98 0.3 32.5 42 -11.1 12.1
05:40 1017 30.03 846 24.98 0.2 32.3 43 -11 12.2
05:45 1017 30.03 846 24.98 0.1 32.1 44 -10.9 12.3
05:50 1017 30.03 846 24.98 0 32 44 -10.9 12.4
05:55 1017 30.03 846 24.98 -0.1 31.8 45 -10.7 12.7
06:00 1017 30.03 846 24.98 -0.2 31.6 45 -10.7 12.7
06:05 1017 30.03 846 24.98 -0.2 31.6 45 -10.7 12.7
06:10 1017 30.03 846 24.98 -0.3 31.5 46 -10.7 12.7
06:15 1017 30.03 846 24.98 -0.4 31.2 46 -10.7 12.8
06:20 1017 30.03 846 24.98 -0.5 31.1 46 -10.6 12.8
06:25 1017 30.03 846 24.98 -0.6 30.9 47 -10.5 13
06:30 1017 30.03 846 24.98 -0.7 30.7 48 -10.4 13.2
06:35 1017 30.03 846 24.98 -0.8 30.5 48 -10.5 13.1
06:40 1017 30.03 846 24.98 -0.8 30.5 50 -10.1 13.8
06:45 1017 30.03 846 24.98 -0.9 30.4 51 -9.8 14.3
06:50 1017 30.03 846 24.98 -0.9 30.4 50 -10 14
06:55 1017 30.03 846 24.98 -0.8 30.6 50 -10 14
07:00 1017 30.03 846 24.98 -0.6 30.9 50 -9.8 14.3
07:05 1017 30.03 846 24.98 -0.6 30.8 50 -9.9 14.2
07:10 1017 30.03 846 24.98 -1 30.1 51 -10 14
07:15 1017 30.03 846 24.98 -1.2 29.9 51 -10.1 13.8
07:20 1017 30.03 846 24.98 -1 30.1 51 -10 14
07:25 1017 30.03 846 24.98 -1 30.3 51 -10 14
07:30 1017 30.03 846 24.98 -1 30.1 52 -9.7 14.5
07:35 1017 30.03 846 24.98 -1.2 29.8 54 -9.4 15
07:40 1017 30.03 846 24.98 -1.4 29.5 55 -9.4 15.1
07:45 1017 30.03 846 24.98 -1.4 29.6 55 -9.2 15.4
07:50 1017 30.03 846 24.98 -1.1 30 54 -9.2 15.4
07:55 1017 30.03 846 24.98 -1 30.1 54 -9.1 15.5
08:00 1017 30.03 846 24.98 -1 30.3 54 -9.1 15.5
08:05 1017 30.03 846 24.98 -0.9 30.3 53 -9.3 15.3
08:10 1017 30.03 846 24.98 -0.9 30.4 53 -9.3 15.3
08:15 1017 30.03 846 24.98 -0.7 30.8 52 -9.3 15.2
08:20 1017 30.03 846 24.98 -0.6 30.9 52 -9.3 15.2
08:25 1017 30.03 846 24.98 -0.5 31.1 51 -9.3 15.2
08:30 1017 30.03 846 24.98 -0.4 31.3 51 -9.3 15.3
08:35 1017 30.03 846 24.98 -0.3 31.4 51 -9.4 15.1
08:40 1017 30.03 846 24.98 -0.3 31.5 50 -9.6 14.8
08:45 1017 30.03 846 24.98 -0.1 31.8 49 -9.6 14.8
08:50 1017 30.03 846 24.98 -0.1 31.9 49 -9.5 14.8
08:55 1017 30.03 846 24.98 -0 32 49 -9.5 14.8
09:00 1017 30.03 846 24.98 0.1 32.2 49 -9.4 15.1
09:05 1017 30.03 846 24.98 0.2 32.4 49 -9.4 15.1
09:10 1017 30.03 846 24.98 0.4 32.7 48 -9.5 14.8
09:15 1017 30.03 846 24.98 0.5 32.8 46 -9.8 14.3
09:20 1017 30.03 846 24.98 0.6 33.2 45 -10.1 13.8
09:25 1017 30.03 846 24.98 0.7 33.2 44 -10.2 13.6
09:30 1017 30.03 846 24.98 0.8 33.4 43 -10.3 13.4
09:35 1017 30.03 846 24.98 0.9 33.6 43 -10.5 13.2
09:40 1017 30.03 846 24.98 1 33.8 43 -10.3 13.5
09:45 1017 30.03 846 24.98 1 33.8 43 -10.2 13.6
09:50 1016 30 846 24.98 1.1 34 42 -10.3 13.5
09:55 1016 30 846 24.98 1.2 34.1 42 -10.5 13.1
10:00 1016 30 846 24.98 1.1 34.1 41 -10.6 12.9
10:05 1016 30 846 24.98 1.2 34.2 41 -10.5 13
10:10 1016 30 846 24.98 1.4 34.4 41 -10.5 13.1
10:15 1016 30 846 24.98 1.5 34.8 39 -10.9 12.5
10:20 1016 30 846 24.98 1.7 35 40 -10.4 13.2
10:25 1016 30 845 24.95 2.2 35.9 40 -9.9 14.1
10:30 1016 30 846 24.98 2.1 35.9 41 -9.9 14.2
10:35 1016 30 845 24.95 2.3 36.2 39 -10.2 13.6
10:40 1016 30 845 24.95 2.2 36 40 -10.2 13.7
10:45 1016 30 845 24.95 2.2 36 38 -10.6 13
10:50 1016 30 846 24.98 2.4 36.2 39 -10.4 13.3
10:55 1016 30 846 24.98 3 37.4 37 -10.3 13.4
11:00 1016 30 846 24.98 2.9 37.1 37 -10.3 13.4
11:05 1016 30 846 24.98 2.7 36.9 37 -10.4 13.3
11:10 1016 30 846 24.98 3 37.5 38 -10 14
11:15 1016 30 846 24.98 3.4 38.2 35 -10.5 13.1
11:20 1016 30 846 24.98 3.3 38 36 -10.3 13.4
11:25 1016 30 845 24.95 3.7 38.7 35 -10.5 13.1
11:30 1016 30 845 24.95 4 39.3 34 -10.4 13.3
11:35 1016 30 845 24.95 4.4 39.9 33 -10.6 12.9
11:40 1016 30 845 24.95 3.3 37.9 37 -10.1 13.7
11:45 1016 30 845 24.95 4 39.3 35 -10.2 13.7
11:50 1016 30 845 24.95 4.2 39.5 35 -10 14
11:55 1016 30 845 24.95 3.7 38.6 36 -10.2 13.6
12:00 1016 30 845 24.95 3.6 38.4 35 -10.4 13.2
12:05 1016 30 845 24.95 3.4 38.2 37 -10 14
12:10 1016 30 845 24.95 4.3 39.7 34 -10.2 13.6
12:15 1016 30 845 24.95 4.3 39.7 34 -10.2 13.6
12:20 1016 30 845 24.95 3.9 39.1 35 -10.4 13.3
12:25 1016 30 845 24.95 4.7 40.5 34 -10 14.1
12:30 1016 30 845 24.95 5.6 42.1 31 -10.1 13.8
12:35 1016 30 845 24.95 5.3 41.5 32 -10.3 13.5
12:40 1016 30 845 24.95 5.5 42 31 -10.2 13.7
12:45 1016 30 845 24.95 5.8 42.5 31 -10.2 13.7
12:50 1016 30 845 24.95 6.3 43.3 29 -10.4 13.3
12:55 1015 29.97 845 24.95 6.2 43.1 31 -9.9 14.2
13:00 1015 29.97 845 24.95 6.6 44 30 -9.6 14.8
13:05 1015 29.97 845 24.95 7 44.6 30 -9.6 14.7
13:10 1015 29.97 845 24.95 6.8 44.2 30 -9.7 14.5
13:15 1015 29.97 844 24.92 6.7 44 29 -10 13.9
13:20 1015 29.97 844 24.92 6.7 44.1 29 -10 14
13:25 1015 29.97 844 24.92 6.3 43.3 30 -9.9 14.2
13:30 1015 29.97 844 24.92 6 42.9 31 -10 14.1
13:35 1015 29.97 844 24.92 5.1 41.2 32 -10.3 13.5
13:40 1015 29.97 844 24.92 5.1 41.2 32 -10.4 13.3
13:45 1015 29.97 844 24.92 5.8 42.5 31 -10 14
13:50 1015 29.97 844 24.92 6.1 43 30 -10 14
13:55 1015 29.97 844 24.92 6.2 43.2 30 -10.2 13.6
14:00 1015 29.97 844 24.92 6.8 44.3 30 -9.8 14.4
14:05 1015 29.97 844 24.92 6.7 44.1 29 -10 14
14:10 1014 29.94 844 24.92 6.5 43.8 30 -10 14
14:15 1014 29.94 844 24.92 6.8 44.3 30 -9.8 14.4
14:20 1014 29.94 844 24.92 5.9 42.5 32 -9.5 15
14:25 1014 29.94 843 24.89 6.1 42.9 31 -9.9 14.2
14:30 1014 29.94 843 24.89 6.3 43.3 31 -9.5 14.9
14:35 1014 29.94 843 24.89 6.8 44.3 30 -9.5 15
14:40 1014 29.94 843 24.89 6.4 43.5 31 -9.6 14.7
14:45 1014 29.94 843 24.89 5.8 42.5 33 -9.4 15
14:50 1014 29.94 843 24.89 6.2 43.1 32 -9.2 15.5
14:55 1014 29.94 843 24.89 6 42.8 34 -8.6 16.6
15:00 1014 29.94 843 24.89 6 42.8 33 -9 15.8
15:05 1014 29.94 843 24.89 6.4 43.6 33 -8.7 16.4
15:10 1014 29.94 843 24.89 7.3 45.2 31 -8.6 16.5
15:15 1014 29.94 843 24.89 7.9 46.2 29 -9 15.8
15:20 1014 29.94 843 24.89 8.3 47 28 -9.3 15.3
15:25 1013 29.91 843 24.89 8.8 47.8 27 -9.1 15.6
15:30 1013 29.91 843 24.89 8.4 47.1 27 -9.7 14.6
15:35 1013 29.91 842 24.86 8.7 47.6 25 -10.4 13.2
15:40 1013 29.91 842 24.86 8.8 47.9 21 -12.3 9.8
15:45 1013 29.91 842 24.86 9 48.2 18 -13.9 7.1
15:50 1013 29.91 842 24.86 8.8 47.8 19 -13.3 8
15:55 1013 29.91 842 24.86 8.6 47.5 20 -13.4 7.8
16:00 1013 29.91 842 24.86 8.2 46.7 20 -13.6 7.6
16:05 1013 29.91 842 24.86 8 46.4 22 -12.4 9.6
16:10 1013 29.91 842 24.86 8.2 46.7 19 -14 6.8
16:15 1013 29.91 842 24.86 8.3 46.9 19 -14.1 6.7
16:20 1013 29.91 842 24.86 8.6 47.6 19 -13.5 7.7
16:25 1013 29.91 842 24.86 8.6 47.4 22 -12.3 9.9
16:30 1013 29.91 842 24.86 8 46.4 20 -13.9 7
16:35 1013 29.91 842 24.86 8 46.5 18 -15 5.1
16:40 1013 29.91 842 24.86 8.1 46.5 20 -13.4 7.9
16:45 1013 29.91 842 24.86 8 46.5 21 -12.9 8.8
16:50 1013 29.91 842 24.86 7.9 46.1 22 -12.4 9.7
16:55 1013 29.91 842 24.86 7.7 45.8 23 -12.4 9.6
17:00 1012 29.88 842 24.86 7.6 45.7 22 -13 8.5
17:05 1012 29.88 842 24.86 7.6 45.7 22 -12.8 9
17:10 1012 29.88 842 24.86 7.7 45.9 23 -12.4 9.7
17:15 1012 29.88 842 24.86 7.9 46.2 22 -12.7 9.1
17:20 1012 29.88 842 24.86 8 46.4 22 -12.2 10
17:25 1012 29.88 842 24.86 8 46.4 21 -13.4 8
17:30 1013 29.91 842 24.86 8 46.4 20 -13.6 7.6
17:35 1013 29.91 842 24.86 8 46.3 21 -13.3 8
17:40 1013 29.91 842 24.86 7.9 46.2 20 -13.7 7.3
17:45 1013 29.91 842 24.86 8 46.4 22 -12.4 9.7
17:50 1013 29.91 842 24.86 7.8 46.1 23 -12.3 9.9
17:55 1012 29.88 842 24.86 7.8 46.1 22 -12.5 9.5
18:00 1012 29.88 842 24.86 8.2 46.7 22 -12.6 9.3
18:05 1012 29.88 842 24.86 8 46.3 21 -13.1 8.5
18:10 1012 29.88 842 24.86 7.9 46.2 22 -12.6 9.3
18:15 1012 29.88 842 24.86 7.5 45.5 24 -12.1 10.2
18:20 1012 29.88 842 24.86 7.3 45.2 23 -12.3 9.9
18:25 1012 29.88 842 24.86 7.5 45.4 21 -13.3 8.1
18:30 1013 29.91 842 24.86 7.5 45.6 23 -12.5 9.5
18:35 1013 29.91 842 24.86 7.3 45.2 23 -12.4 9.7
18:40 1013 29.91 842 24.86 7.3 45.1 23 -12.8 9
18:45 1013 29.91 842 24.86 7.2 45 22 -13.1 8.5
18:50 1013 29.91 842 24.86 7.2 45 24 -11.9 10.6
18:55 1013 29.91 842 24.86 7 44.6 24 -12 10.4
19:00 1013 29.91 842 24.86 6.9 44.5 24 -12.4 9.7
19:05 1013 29.91 842 24.86 6.9 44.4 22 -13.3 8
19:10 1013 29.91 842 24.86 6.9 44.4 22 -13.5 7.7
19:15 1013 29.91 842 24.86 6.8 44.2 23 -13.1 8.3
19:20 1013 29.91 842 24.86 6.7 44.1 19 -15.4 4.2
19:25 1013 29.91 842 24.86 6.9 44.4 19 -15 4.9
19:30 1013 29.91 842 24.86 6.8 44.2 22 -13.3 8
19:35 1013 29.91 842 24.86 6.5 43.7 23 -13.1 8.5
19:40 1013 29.91 842 24.86 6.3 43.4 24 -12.9 8.7
19:45 1013 29.91 843 24.89 6.2 43.2 26 -12.2 10.1
19:50 1013 29.91 843 24.89 6 42.8 26 -12.1 10.3
19:55 1013 29.91 843 24.89 5.8 42.4 29 -11.1 12
20:00 1014 29.94 843 24.89 5.6 42 30 -10.5 13.1
20:05 1014 29.94 843 24.89 5.3 41.6 31 -10.5 13
20:10 1014 29.94 843 24.89 5.3 41.5 30 -11 12.3
20:15 1014 29.94 843 24.89 5.4 41.7 27 -12.3 9.8
20:20 1014 29.94 843 24.89 5.7 42.3 26 -12.5 9.5
20:25 1014 29.94 843 24.89 5.7 42.3 27 -11.9 10.6
20:30 1014 29.94 843 24.89 5.5 41.9 30 -10.7 12.8
20:35 1014 29.94 843 24.89 5.2 41.4 31 -10.5 13.1
20:40 1014 29.94 843 24.89 5.1 41.2 29 -11.7 11
20:45 1014 29.94 843 24.89 5.2 41.4 30 -11.1 11.9
20:50 1014 29.94 843 24.89 5.1 41.2 30 -11 12.2
20:55 1014 29.94 843 24.89 5.1 41.1 30 -11.4 11.6
21:00 1014 29.94 843 24.89 5.1 41.1 30 -11.3 11.7
21:05 1014 29.94 843 24.89 5 41 30 -11 12.1
21:10 1014 29.94 843 24.89 5 41 30 -11.1 12.1
21:15 1014 29.94 843 24.89 4.9 40.9 29 -11.8 10.8
21:20 1014 29.94 843 24.89 5 40.9 29 -11.8 10.7
21:25 1014 29.94 843 24.89 4.9 40.8 29 -11.7 11
21:30 1014 29.94 843 24.89 4.9 40.9 30 -11.3 11.7
21:35 1014 29.94 843 24.89 4.9 40.9 28 -12.1 10.2
21:40 1014 29.94 843 24.89 5 41 29 -11.8 10.7
21:45 1014 29.94 843 24.89 4.9 40.9 30 -11.3 11.6
21:50 1014 29.94 843 24.89 4.8 40.7 30 -11.2 11.8
21:55 1014 29.94 843 24.89 4.7 40.5 31 -11 12.3
22:00 1014 29.94 843 24.89 4.6 40.2 32 -10.9 12.3
22:05 1014 29.94 843 24.89 4.4 40 32 -11 12.2
22:10 1014 29.94 843 24.89 4.4 39.8 32 -11.1 12
22:15 1014 29.94 843 24.89 4.3 39.8 31 -11.2 11.8
22:20 1014 29.94 843 24.89 4.3 39.8 31 -11.4 11.5
22:25 1014 29.94 843 24.89 4.3 39.8 31 -11.5 11.4
22:30 1014 29.94 843 24.89 4.3 39.8 31 -11.5 11.3
22:35 1014 29.94 843 24.89 4.3 39.7 31 -11.3 11.7
22:40 1014 29.94 843 24.89 4.1 39.5 33 -10.9 12.5
22:45 1014 29.94 843 24.89 4.1 39.3 33 -10.7 12.7
22:50 1014 29.94 843 24.89 4 39.1 34 -10.4 13.3
22:55 1014 29.94 843 24.89 3.7 38.6 37 -9.8 14.4
23:00 1014 29.94 843 24.89 3.5 38.3 37 -9.8 14.3
23:05 1014 29.94 843 24.89 3.5 38.3 35 -10.5 13.1
23:10 1014 29.94 843 24.89 3.6 38.6 35 -10.5 13
23:15 1014 29.94 843 24.89 3.7 38.6 35 -10.6 13
23:20 1014 29.94 843 24.89 3.7 38.7 34 -10.9 12.5
23:25 1014 29.94 843 24.89 3.8 38.8 33 -10.9 12.3
23:30 1014 29.94 843 24.89 3.8 38.9 34 -10.8 12.5
23:35 1014 29.94 843 24.89 3.8 38.8 33 -10.9 12.3
23:40 1014 29.94 843 24.89 3.8 38.8 33 -11 12.2
23:45 1013 29.91 843 24.89 3.8 38.8 33 -11 12.2
23:50 1013 29.91 843 24.89 3.8 38.8 33 -11 12.2
23:55 1013 29.91 843 24.89 3.7 38.7 33 -11 12.2
24:00 1013 29.91 843 24.89 3.6 38.5 34 -10.9 12.4